Weather at Ikaria Airport

Public forecast

Using degrees Celsius for public forecast. Weather courtesy of forecast.io.

Closest aviation weather report (METAR) to Ikaria Airport

Report is more than 6 hours old.

Closest report is Samos Airport, 26.8 nm (49.7 km) E.

2022/11/14 14:50 (retrieved 2 years ago)

LGSM 141450Z 36009KT 9999 FEW025 17/09 Q1018

Closest aviation forecast (TAF) to Ikaria Airport

Forecast is more than 12 hours old.

Closest forecast is Adnan Menderes International Airport, 53.0 nm (98.2 km) NE.

2023/02/22 18:03 (retrieved 1 year ago)

TAF LTBJ 221640Z 2218/2318 VRB02KT 7000 NSC BECMG 2222/2302 3200 BR SCT010 PROB40 2302/2306 0300 FG VV001 BECMG 2307/2310 CAVOK BECMG 2310/2312 FEW030 BECMG 2313/2315 CAVOK TEMPO 2313/2317 35012KT